createdAt,value
2023-05-25T10:19:18.377Z,18.20
2023-05-25T10:24:32.772Z,18.40
2023-05-25T10:27:14.663Z,18.50
2023-05-25T10:29:53.010Z,18.20
2023-05-25T10:32:21.169Z,18.40
2023-05-25T10:34:52.000Z,18.50
2023-05-25T10:37:21.922Z,18.50
2023-05-25T10:39:51.644Z,18.80
2023-05-25T10:44:49.497Z,18.90
2023-05-25T10:47:17.893Z,19.00
2023-05-25T10:49:56.384Z,19.00
2023-05-25T10:52:30.716Z,19.00
2023-05-25T10:55:01.811Z,19.20
2023-05-25T10:57:30.312Z,19.30
2023-05-25T11:00:06.293Z,19.30
2023-05-25T11:02:51.369Z,19.20
2023-05-25T11:05:34.193Z,19.50
2023-05-25T11:08:06.483Z,19.50
2023-05-25T11:10:54.137Z,19.80
2023-05-25T11:13:41.227Z,19.30
2023-05-25T11:16:18.052Z,19.50
2023-05-25T11:18:47.473Z,19.50
2023-05-25T11:21:18.774Z,19.60
2023-05-25T11:24:02.846Z,19.80
2023-05-25T11:26:33.573Z,19.90
2023-05-25T11:29:03.255Z,20.10
2023-05-25T11:31:38.392Z,20.30
2023-05-25T11:34:12.357Z,20.20
2023-05-25T11:36:41.412Z,20.30
2023-05-25T11:39:21.951Z,20.40
2023-05-25T11:41:54.746Z,20.50
2023-05-25T11:44:30.300Z,20.70
2023-05-25T11:47:01.812Z,20.70
2023-05-25T11:49:30.271Z,20.70
2023-05-25T11:51:59.134Z,20.80
2023-05-25T11:54:30.593Z,20.80
2023-05-25T11:57:00.156Z,21.10
2023-05-25T11:59:30.475Z,21.30
2023-05-25T12:02:01.633Z,21.30
2023-05-25T12:04:30.643Z,21.30
2023-05-25T12:07:05.914Z,21.10
2023-05-25T12:09:36.719Z,21.00
2023-05-25T12:12:05.938Z,20.90
2023-05-25T12:14:36.155Z,21.20
2023-05-25T12:17:04.658Z,21.00
2023-05-25T12:19:33.492Z,20.90
2023-05-25T12:22:01.705Z,21.10
2023-05-25T12:24:29.929Z,21.30
2023-05-25T12:27:01.409Z,21.10
2023-05-25T12:29:29.787Z,21.20
2023-05-25T12:32:03.831Z,21.40
2023-05-25T12:34:32.211Z,21.60
2023-05-25T12:37:01.521Z,21.30
2023-05-25T12:39:39.208Z,21.30
2023-05-25T12:42:15.487Z,21.20
2023-05-25T12:44:44.408Z,21.30
2023-05-25T12:47:15.102Z,21.30
2023-05-25T12:49:45.671Z,21.30
2023-05-25T12:52:33.188Z,21.50
2023-05-25T12:55:19.423Z,21.60
2023-05-25T12:57:52.464Z,22.00
2023-05-25T13:00:24.530Z,22.40
2023-05-25T13:02:53.602Z,22.50
2023-05-25T13:05:23.340Z,22.40
2023-05-25T13:07:51.971Z,22.40
2023-05-25T13:10:20.347Z,22.50
2023-05-25T13:12:51.005Z,22.50
2023-05-25T13:15:21.192Z,22.50
2023-05-25T13:17:50.554Z,22.70
2023-05-25T13:20:20.534Z,22.70
2023-05-25T13:22:50.697Z,22.70
2023-05-25T13:30:23.800Z,23.90
2023-05-25T13:58:15.295Z,23.40
2023-05-25T14:03:14.098Z,25.10
2023-05-25T14:08:12.764Z,25.90
2023-05-25T14:10:43.394Z,26.10
2023-05-25T14:15:40.237Z,26.50
2023-05-25T14:18:09.791Z,25.10
2023-05-25T14:20:40.284Z,24.80
2023-05-25T14:23:10.073Z,24.40
2023-05-25T14:25:42.204Z,24.60
2023-05-25T14:30:38.991Z,23.70
2023-05-25T14:33:14.339Z,25.80
2023-05-25T14:38:11.954Z,26.00
2023-05-25T14:40:40.136Z,26.00
2023-05-25T14:48:15.916Z,25.20
2023-05-25T14:50:46.333Z,25.10
2023-05-25T14:53:15.281Z,24.70
2023-05-25T14:55:43.803Z,24.40
2023-05-25T14:58:12.230Z,24.00
2023-05-25T15:00:40.405Z,24.00
2023-05-25T15:03:08.763Z,24.00
2023-05-25T15:05:36.928Z,23.80
2023-05-25T15:08:06.407Z,23.40
2023-05-25T15:13:03.049Z,23.60
2023-05-25T15:15:31.205Z,24.10
2023-05-25T15:20:27.853Z,25.90
2023-05-25T15:22:56.100Z,26.40
2023-05-25T15:32:56.602Z,26.50
2023-05-25T15:35:30.881Z,26.90
2023-05-25T15:37:59.139Z,27.70
2023-05-25T15:40:28.704Z,27.80
2023-05-25T15:42:56.865Z,28.70
2023-05-25T15:45:26.352Z,28.70
2023-05-25T15:47:54.615Z,28.30
2023-05-25T15:50:22.799Z,28.40
2023-05-25T15:52:50.892Z,28.70
2023-05-25T15:55:19.094Z,28.50
2023-05-25T15:57:48.539Z,28.50
2023-05-25T16:00:17.750Z,28.40
2023-05-25T16:02:45.933Z,28.60
2023-05-25T16:05:14.303Z,29.20
2023-05-25T16:07:42.470Z,30.60
2023-05-25T16:10:11.434Z,30.50
2023-05-25T16:12:39.582Z,30.60
2023-05-25T16:15:10.644Z,29.70
2023-05-25T16:17:38.863Z,29.10
2023-05-25T16:20:08.592Z,28.60
2023-05-25T16:22:36.966Z,29.10
2023-05-25T16:25:05.520Z,28.70
2023-05-25T16:27:33.703Z,29.40
2023-05-25T16:30:01.893Z,29.40
2023-05-25T16:35:02.462Z,29.10
2023-05-25T16:37:30.776Z,29.00
2023-05-25T16:39:58.866Z,29.20
2023-05-25T16:44:55.469Z,29.70
2023-05-25T16:47:23.713Z,29.80
2023-05-25T16:49:53.205Z,30.10
2023-05-25T16:52:21.276Z,30.50
2023-05-25T16:54:49.394Z,29.80
2023-05-25T16:57:17.574Z,29.50
2023-05-25T16:59:45.697Z,29.20
2023-05-25T17:02:13.890Z,29.10
2023-05-25T17:04:42.030Z,28.90
2023-05-25T17:07:11.556Z,30.70
2023-05-25T17:12:09.067Z,28.80
2023-05-25T17:17:06.178Z,28.80
2023-05-25T17:19:34.658Z,28.50
2023-05-25T17:22:02.759Z,28.10
2023-05-25T17:24:32.184Z,27.70
2023-05-25T17:27:01.270Z,27.10
2023-05-25T17:29:29.330Z,27.30
2023-05-25T17:31:57.440Z,27.20
2023-05-25T17:34:25.536Z,27.00
2023-05-25T17:36:53.597Z,27.40
2023-05-25T17:39:21.721Z,27.50
2023-05-25T17:41:51.180Z,27.40
2023-05-25T17:44:19.459Z,27.30
2023-05-25T17:46:47.592Z,27.20
2023-05-25T17:49:15.727Z,26.80
2023-05-25T17:51:43.847Z,26.20
2023-05-25T17:54:15.298Z,25.40
2023-05-25T17:56:43.485Z,25.10
2023-05-25T18:01:42.071Z,23.80
2023-05-25T18:04:10.508Z,23.40
2023-05-25T18:06:38.787Z,23.10
2023-05-25T18:09:06.964Z,22.40
2023-05-25T18:11:36.614Z,21.70
2023-05-25T18:14:05.262Z,22.00
2023-05-25T18:16:39.481Z,21.70
2023-05-25T18:19:09.464Z,21.60
2023-05-25T18:21:38.131Z,21.50
2023-05-25T18:24:07.421Z,21.40
2023-05-25T18:31:33.399Z,21.10
2023-05-25T18:34:03.064Z,21.00
2023-05-25T18:36:33.078Z,20.90
2023-05-25T18:39:01.199Z,20.80
2023-05-25T18:41:29.505Z,20.70
2023-05-25T18:43:57.674Z,20.60
2023-05-25T18:46:26.827Z,20.60
2023-05-25T18:48:55.733Z,20.40
2023-05-25T18:51:25.895Z,20.20
2023-05-25T18:53:54.761Z,20.10
2023-05-25T18:56:22.934Z,20.00
2023-05-25T18:58:52.112Z,19.90
2023-05-25T19:01:20.290Z,19.70
2023-05-25T19:03:48.415Z,19.60
2023-05-25T19:06:16.662Z,19.50
2023-05-25T19:08:46.203Z,19.30
2023-05-25T19:11:15.556Z,19.30
2023-05-25T19:13:43.693Z,19.10
2023-05-25T19:18:40.301Z,19.00
2023-05-25T19:21:08.456Z,19.00
2023-05-25T19:26:06.549Z,18.60
2023-05-25T19:28:35.156Z,18.40
2023-05-25T19:31:03.280Z,18.20
2023-05-25T19:35:59.794Z,17.60
2023-05-25T19:38:34.109Z,17.30
2023-05-25T19:41:07.265Z,17.20
2023-05-25T19:43:36.102Z,17.10
2023-05-25T19:46:04.394Z,16.90
2023-05-25T19:48:32.700Z,16.60
2023-05-25T19:53:31.407Z,16.50
2023-05-25T19:55:59.649Z,16.30
2023-05-25T20:00:58.078Z,16.00
2023-05-25T20:03:26.402Z,15.80
2023-05-25T20:05:54.608Z,15.70
2023-05-25T20:08:24.689Z,15.60
2023-05-25T20:10:53.796Z,15.60
2023-05-25T20:13:21.926Z,15.40
2023-05-25T20:15:51.476Z,14.70
2023-05-25T20:20:48.163Z,15.10
2023-05-25T20:23:16.379Z,15.00
2023-05-25T20:25:44.623Z,14.50
2023-05-25T20:30:41.372Z,14.70
2023-05-25T20:33:10.874Z,14.40
2023-05-25T20:35:39.157Z,12.60
2023-05-25T20:38:07.370Z,14.40
2023-05-25T20:40:35.551Z,14.50
2023-05-25T20:43:03.698Z,14.10
2023-05-25T20:45:31.846Z,14.30
2023-05-25T20:48:01.301Z,13.90
2023-05-25T20:50:31.575Z,14.60
2023-05-25T20:52:59.730Z,13.90
2023-05-25T20:55:28.685Z,13.70
2023-05-25T20:57:59.730Z,13.60
2023-05-25T21:00:27.870Z,11.90
2023-05-25T21:02:56.076Z,13.60
2023-05-25T21:05:24.463Z,13.60
2023-05-25T21:07:54.057Z,13.60
2023-05-25T21:10:22.193Z,15.20
2023-05-25T21:12:50.314Z,13.60
2023-05-25T21:15:18.439Z,13.50
2023-05-25T21:20:15.012Z,13.30
2023-05-25T21:22:43.141Z,13.20
2023-05-25T21:25:12.962Z,13.30
2023-05-25T21:27:41.428Z,13.10
2023-05-25T21:30:10.343Z,12.70
2023-05-25T21:32:38.528Z,13.10
2023-05-25T21:35:06.896Z,13.10
2023-05-25T21:37:34.995Z,13.20
2023-05-25T21:40:03.339Z,13.10
2023-05-25T21:49:58.322Z,13.00
2023-05-25T21:52:26.497Z,13.10
2023-05-25T21:57:23.039Z,12.90
2023-05-25T21:59:52.727Z,12.70
2023-05-25T22:02:22.125Z,12.60
2023-05-25T22:04:50.314Z,12.40
2023-05-25T22:07:21.086Z,12.40
2023-05-25T22:09:49.158Z,12.50
2023-05-25T22:12:17.336Z,12.50
2023-05-25T22:14:45.604Z,12.60
2023-05-25T22:17:15.960Z,12.50
2023-05-25T22:19:46.932Z,12.60
2023-05-25T22:22:21.406Z,12.60
2023-05-25T22:24:49.796Z,12.60
2023-05-25T22:27:17.923Z,12.40
2023-05-25T22:29:46.108Z,12.40
2023-05-25T22:32:15.720Z,12.20
2023-05-25T22:34:43.912Z,12.60
2023-05-25T22:37:12.084Z,12.80
2023-05-25T22:39:40.237Z,12.00
2023-05-25T22:42:08.541Z,12.30
2023-05-25T22:44:37.157Z,11.80
2023-05-25T22:47:06.879Z,11.90
2023-05-25T22:49:44.112Z,11.80
2023-05-25T22:52:13.001Z,11.80
2023-05-25T22:54:41.178Z,11.90
2023-05-25T22:57:10.444Z,11.70
2023-05-25T22:59:38.645Z,11.30
2023-05-25T23:02:06.990Z,11.50
2023-05-25T23:07:06.087Z,11.30
2023-05-25T23:09:34.140Z,11.30
2023-05-25T23:12:02.385Z,11.40
2023-05-25T23:14:31.373Z,11.30
2023-05-25T23:16:59.539Z,11.40
2023-05-25T23:19:27.607Z,11.60
2023-05-25T23:21:58.601Z,11.40
2023-05-25T23:24:26.715Z,11.40
2023-05-25T23:26:54.764Z,11.40
2023-05-25T23:29:22.870Z,11.50
2023-05-25T23:31:51.044Z,11.30
2023-05-25T23:34:19.199Z,11.30
2023-05-25T23:36:47.390Z,11.10
2023-05-25T23:39:16.912Z,11.10
2023-05-25T23:41:45.066Z,11.00
2023-05-25T23:44:13.164Z,11.10
2023-05-25T23:46:41.264Z,11.00
2023-05-25T23:49:09.464Z,11.00
2023-05-25T23:51:37.572Z,11.00
2023-05-25T23:54:06.887Z,11.00
2023-05-25T23:56:36.406Z,11.00
2023-05-25T23:59:05.283Z,11.10
